sensor_id;sensor_type;location;lat;lon;timestamp;temperature;humidity
3727;DHT22;1879;45.876;12.300;2022-08-19T00:00:38;22.50;99.90
3727;DHT22;1879;45.876;12.300;2022-08-19T00:03:05;22.50;99.90
3727;DHT22;1879;45.876;12.300;2022-08-19T00:05:34;22.60;99.90
3727;DHT22;1879;45.876;12.300;2022-08-19T00:08:01;22.70;99.90
3727;DHT22;1879;45.876;12.300;2022-08-19T00:10:29;22.80;99.90
3727;DHT22;1879;45.876;12.300;2022-08-19T00:12:56;22.80;99.90
3727;DHT22;1879;45.876;12.300;2022-08-19T00:15:23;22.90;99.90
3727;DHT22;1879;45.876;12.300;2022-08-19T00:17:50;22.90;99.90
3727;DHT22;1879;45.876;12.300;2022-08-19T00:20:20;22.90;99.90
3727;DHT22;1879;45.876;12.300;2022-08-19T00:22:47;23.00;99.90
3727;DHT22;1879;45.876;12.300;2022-08-19T00:25:15;22.90;99.90
3727;DHT22;1879;45.876;12.300;2022-08-19T00:27:44;22.80;99.90
3727;DHT22;1879;45.876;12.300;2022-08-19T00:30:11;22.90;99.90
3727;DHT22;1879;45.876;12.300;2022-08-19T00:32:39;22.90;99.90
3727;DHT22;1879;45.876;12.300;2022-08-19T00:35:07;23.10;99.90
3727;DHT22;1879;45.876;12.300;2022-08-19T00:37:35;23.10;99.90
3727;DHT22;1879;45.876;12.300;2022-08-19T00:40:04;23.20;99.90
3727;DHT22;1879;45.876;12.300;2022-08-19T00:42:32;23.20;99.90
3727;DHT22;1879;45.876;12.300;2022-08-19T00:45:00;23.20;99.90
3727;DHT22;1879;45.876;12.300;2022-08-19T00:47:27;23.00;99.90
3727;DHT22;1879;45.876;12.300;2022-08-19T00:49:57;23.00;99.90
3727;DHT22;1879;45.876;12.300;2022-08-19T00:52:28;23.10;99.90
3727;DHT22;1879;45.876;12.300;2022-08-19T00:54:57;23.10;99.90
3727;DHT22;1879;45.876;12.300;2022-08-19T00:57:28;23.10;99.90
3727;DHT22;1879;45.876;12.300;2022-08-19T00:59:56;23.00;99.90
3727;DHT22;1879;45.876;12.300;2022-08-19T01:02:27;22.90;99.90
3727;DHT22;1879;45.876;12.300;2022-08-19T01:04:54;22.90;99.90
3727;DHT22;1879;45.876;12.300;2022-08-19T01:07:22;22.80;99.90
3727;DHT22;1879;45.876;12.300;2022-08-19T01:09:49;22.80;99.90
3727;DHT22;1879;45.876;12.300;2022-08-19T01:12:17;22.70;99.90
3727;DHT22;1879;45.876;12.300;2022-08-19T01:14:45;22.70;99.90
3727;DHT22;1879;45.876;12.300;2022-08-19T01:17:13;22.60;99.90
3727;DHT22;1879;45.876;12.300;2022-08-19T01:19:43;22.50;99.90
3727;DHT22;1879;45.876;12.300;2022-08-19T01:22:16;22.30;99.90
3727;DHT22;1879;45.876;12.300;2022-08-19T01:24:45;22.20;99.90
3727;DHT22;1879;45.876;12.300;2022-08-19T01:27:12;22.30;99.90
3727;DHT22;1879;45.876;12.300;2022-08-19T01:29:41;22.30;99.90
3727;DHT22;1879;45.876;12.300;2022-08-19T01:32:12;22.30;99.90
3727;DHT22;1879;45.876;12.300;2022-08-19T01:34:40;22.30;99.90
3727;DHT22;1879;45.876;12.300;2022-08-19T01:37:08;22.30;99.90
3727;DHT22;1879;45.876;12.300;2022-08-19T01:39:37;22.30;99.90
3727;DHT22;1879;45.876;12.300;2022-08-19T01:42:08;22.20;99.90
3727;DHT22;1879;45.876;12.300;2022-08-19T01:44:36;22.20;99.90
3727;DHT22;1879;45.876;12.300;2022-08-19T01:47:04;22.20;99.90
3727;DHT22;1879;45.876;12.300;2022-08-19T01:49:32;22.10;99.90
3727;DHT22;1879;45.876;12.300;2022-08-19T01:52:00;22.20;99.90
3727;DHT22;1879;45.876;12.300;2022-08-19T01:54:27;22.40;99.90
3727;DHT22;1879;45.876;12.300;2022-08-19T01:56:59;22.50;99.90
3727;DHT22;1879;45.876;12.300;2022-08-19T01:59:29;22.50;99.90
3727;DHT22;1879;45.876;12.300;2022-08-19T02:01:56;22.40;99.90
3727;DHT22;1879;45.876;12.300;2022-08-19T02:04:23;22.50;99.90
3727;DHT22;1879;45.876;12.300;2022-08-19T02:06:51;22.60;99.90
3727;DHT22;1879;45.876;12.300;2022-08-19T02:09:18;22.70;99.90
3727;DHT22;1879;45.876;12.300;2022-08-19T02:11:45;22.70;99.90
3727;DHT22;1879;45.876;12.300;2022-08-19T02:14:12;22.70;99.90
3727;DHT22;1879;45.876;12.300;2022-08-19T02:16:40;22.70;99.90
3727;DHT22;1879;45.876;12.300;2022-08-19T02:19:08;22.60;99.90
3727;DHT22;1879;45.876;12.300;2022-08-19T02:21:36;22.60;99.90
3727;DHT22;1879;45.876;12.300;2022-08-19T02:24:03;22.50;99.90
3727;DHT22;1879;45.876;12.300;2022-08-19T02:26:32;22.40;99.90
3727;DHT22;1879;45.876;12.300;2022-08-19T02:28:59;22.30;99.90
3727;DHT22;1879;45.876;12.300;2022-08-19T02:31:27;22.20;99.90
3727;DHT22;1879;45.876;12.300;2022-08-19T02:33:56;22.20;99.90
3727;DHT22;1879;45.876;12.300;2022-08-19T02:36:24;22.20;99.90
3727;DHT22;1879;45.876;12.300;2022-08-19T02:38:52;22.20;99.90
3727;DHT22;1879;45.876;12.300;2022-08-19T02:41:20;22.30;99.90
3727;DHT22;1879;45.876;12.300;2022-08-19T02:43:48;22.40;99.90
3727;DHT22;1879;45.876;12.300;2022-08-19T02:46:18;22.50;99.90
3727;DHT22;1879;45.876;12.300;2022-08-19T02:48:47;22.50;99.90
3727;DHT22;1879;45.876;12.300;2022-08-19T02:51:21;22.50;99.90
3727;DHT22;1879;45.876;12.300;2022-08-19T02:53:49;22.50;99.90
3727;DHT22;1879;45.876;12.300;2022-08-19T02:56:17;22.50;99.90
3727;DHT22;1879;45.876;12.300;2022-08-19T02:58:44;22.50;99.90
3727;DHT22;1879;45.876;12.300;2022-08-19T03:01:20;22.40;99.90
3727;DHT22;1879;45.876;12.300;2022-08-19T03:03:47;22.30;99.90
3727;DHT22;1879;45.876;12.300;2022-08-19T03:06:15;22.30;99.90
3727;DHT22;1879;45.876;12.300;2022-08-19T03:08:45;22.30;99.90
3727;DHT22;1879;45.876;12.300;2022-08-19T03:11:14;22.20;99.90
3727;DHT22;1879;45.876;12.300;2022-08-19T03:13:41;22.10;99.90
3727;DHT22;1879;45.876;12.300;2022-08-19T03:16:09;22.10;99.90
3727;DHT22;1879;45.876;12.300;2022-08-19T03:18:37;22.10;99.90
3727;DHT22;1879;45.876;12.300;2022-08-19T03:21:05;22.10;99.90
3727;DHT22;1879;45.876;12.300;2022-08-19T03:23:32;22.10;99.90
3727;DHT22;1879;45.876;12.300;2022-08-19T03:26:03;22.00;99.90
3727;DHT22;1879;45.876;12.300;2022-08-19T03:28:31;21.90;99.90
3727;DHT22;1879;45.876;12.300;2022-08-19T03:31:02;21.80;99.90
3727;DHT22;1879;45.876;12.300;2022-08-19T03:33:30;21.80;99.90
3727;DHT22;1879;45.876;12.300;2022-08-19T03:36:04;21.80;99.90
3727;DHT22;1879;45.876;12.300;2022-08-19T03:38:32;21.80;99.90
3727;DHT22;1879;45.876;12.300;2022-08-19T03:41:05;21.80;99.90
3727;DHT22;1879;45.876;12.300;2022-08-19T03:43:34;21.80;99.90
3727;DHT22;1879;45.876;12.300;2022-08-19T03:46:03;21.90;99.90
3727;DHT22;1879;45.876;12.300;2022-08-19T03:48:32;21.90;99.90
3727;DHT22;1879;45.876;12.300;2022-08-19T03:51:00;22.00;99.90
3727;DHT22;1879;45.876;12.300;2022-08-19T03:53:28;22.00;99.90
3727;DHT22;1879;45.876;12.300;2022-08-19T03:55:56;21.90;99.90
3727;DHT22;1879;45.876;12.300;2022-08-19T03:58:25;22.00;99.90
3727;DHT22;1879;45.876;12.300;2022-08-19T04:00:53;21.90;99.90
3727;DHT22;1879;45.876;12.300;2022-08-19T04:03:20;21.90;99.90
3727;DHT22;1879;45.876;12.300;2022-08-19T04:05:47;21.70;99.90
3727;DHT22;1879;45.876;12.300;2022-08-19T04:08:14;21.70;99.90
3727;DHT22;1879;45.876;12.300;2022-08-19T04:10:46;21.70;99.90
3727;DHT22;1879;45.876;12.300;2022-08-19T04:13:13;21.70;99.90
3727;DHT22;1879;45.876;12.300;2022-08-19T04:15:44;21.80;99.90
3727;DHT22;1879;45.876;12.300;2022-08-19T04:18:12;21.80;99.90
3727;DHT22;1879;45.876;12.300;2022-08-19T04:20:42;21.90;99.90
3727;DHT22;1879;45.876;12.300;2022-08-19T04:23:09;21.90;99.90
3727;DHT22;1879;45.876;12.300;2022-08-19T04:25:37;22.00;99.90
3727;DHT22;1879;45.876;12.300;2022-08-19T04:28:06;22.00;99.90
3727;DHT22;1879;45.876;12.300;2022-08-19T04:30:38;22.00;99.90
3727;DHT22;1879;45.876;12.300;2022-08-19T04:33:07;21.90;99.90
3727;DHT22;1879;45.876;12.300;2022-08-19T04:35:36;21.80;99.90
3727;DHT22;1879;45.876;12.300;2022-08-19T04:38:04;21.90;99.90
3727;DHT22;1879;45.876;12.300;2022-08-19T04:40:31;21.90;99.90
3727;DHT22;1879;45.876;12.300;2022-08-19T04:43:16;22.00;99.90
3727;DHT22;1879;45.876;12.300;2022-08-19T04:45:43;21.90;99.90
3727;DHT22;1879;45.876;12.300;2022-08-19T04:48:12;21.90;99.90
3727;DHT22;1879;45.876;12.300;2022-08-19T04:50:43;21.90;99.90
3727;DHT22;1879;45.876;12.300;2022-08-19T04:53:10;21.60;99.90
3727;DHT22;1879;45.876;12.300;2022-08-19T04:55:41;21.60;99.90
3727;DHT22;1879;45.876;12.300;2022-08-19T04:58:08;21.40;99.90
3727;DHT22;1879;45.876;12.300;2022-08-19T05:00:38;21.30;99.90
3727;DHT22;1879;45.876;12.300;2022-08-19T05:03:05;21.30;99.90
3727;DHT22;1879;45.876;12.300;2022-08-19T05:05:37;21.40;99.90
3727;DHT22;1879;45.876;12.300;2022-08-19T05:08:04;21.40;99.90
3727;DHT22;1879;45.876;12.300;2022-08-19T05:10:34;21.40;99.90
3727;DHT22;1879;45.876;12.300;2022-08-19T05:13:02;21.30;99.90
3727;DHT22;1879;45.876;12.300;2022-08-19T05:15:32;21.30;99.90
3727;DHT22;1879;45.876;12.300;2022-08-19T05:17:59;21.30;99.90
3727;DHT22;1879;45.876;12.300;2022-08-19T05:20:44;21.20;99.90
3727;DHT22;1879;45.876;12.300;2022-08-19T05:23:28;21.00;99.90
3727;DHT22;1879;45.876;12.300;2022-08-19T05:25:55;21.00;99.90
3727;DHT22;1879;45.876;12.300;2022-08-19T05:28:22;21.00;99.90
3727;DHT22;1879;45.876;12.300;2022-08-19T05:30:50;21.00;99.90
3727;DHT22;1879;45.876;12.300;2022-08-19T05:33:17;21.00;99.90
3727;DHT22;1879;45.876;12.300;2022-08-19T05:35:46;21.00;99.90
3727;DHT22;1879;45.876;12.300;2022-08-19T05:38:14;21.10;99.90
3727;DHT22;1879;45.876;12.300;2022-08-19T05:40:41;21.20;99.90
3727;DHT22;1879;45.876;12.300;2022-08-19T05:43:11;21.20;99.90
3727;DHT22;1879;45.876;12.300;2022-08-19T05:45:42;21.10;99.90
3727;DHT22;1879;45.876;12.300;2022-08-19T05:48:09;21.10;99.90
3727;DHT22;1879;45.876;12.300;2022-08-19T05:50:38;21.10;99.90
3727;DHT22;1879;45.876;12.300;2022-08-19T05:53:07;21.10;99.90
3727;DHT22;1879;45.876;12.300;2022-08-19T05:55:35;21.20;99.90
3727;DHT22;1879;45.876;12.300;2022-08-19T05:58:03;21.20;99.90
3727;DHT22;1879;45.876;12.300;2022-08-19T06:00:33;21.30;99.90
3727;DHT22;1879;45.876;12.300;2022-08-19T06:03:00;21.30;99.90
3727;DHT22;1879;45.876;12.300;2022-08-19T06:05:29;21.30;99.90
3727;DHT22;1879;45.876;12.300;2022-08-19T06:07:56;21.30;99.90
3727;DHT22;1879;45.876;12.300;2022-08-19T06:10:25;21.40;99.90
3727;DHT22;1879;45.876;12.300;2022-08-19T06:12:56;21.40;99.90
3727;DHT22;1879;45.876;12.300;2022-08-19T06:15:24;21.50;99.90
3727;DHT22;1879;45.876;12.300;2022-08-19T06:17:53;21.50;99.90
3727;DHT22;1879;45.876;12.300;2022-08-19T06:20:20;21.60;99.90
3727;DHT22;1879;45.876;12.300;2022-08-19T06:22:50;21.80;99.90
3727;DHT22;1879;45.876;12.300;2022-08-19T06:25:17;21.80;99.90
3727;DHT22;1879;45.876;12.300;2022-08-19T06:27:46;21.80;99.90
3727;DHT22;1879;45.876;12.300;2022-08-19T06:30:13;21.90;99.90
3727;DHT22;1879;45.876;12.300;2022-08-19T06:32:40;21.90;99.90
3727;DHT22;1879;45.876;12.300;2022-08-19T06:35:08;22.00;99.90
3727;DHT22;1879;45.876;12.300;2022-08-19T06:37:36;22.10;99.90
3727;DHT22;1879;45.876;12.300;2022-08-19T06:40:04;22.40;99.90
3727;DHT22;1879;45.876;12.300;2022-08-19T06:42:31;22.50;99.90
3727;DHT22;1879;45.876;12.300;2022-08-19T06:45:00;22.70;99.90
3727;DHT22;1879;45.876;12.300;2022-08-19T06:47:31;22.90;99.90
3727;DHT22;1879;45.876;12.300;2022-08-19T06:50:00;23.00;99.90
3727;DHT22;1879;45.876;12.300;2022-08-19T06:52:28;23.10;99.90
3727;DHT22;1879;45.876;12.300;2022-08-19T06:54:56;23.10;99.90
3727;DHT22;1879;45.876;12.300;2022-08-19T06:57:23;23.00;99.90
3727;DHT22;1879;45.876;12.300;2022-08-19T06:59:50;23.20;99.90
3727;DHT22;1879;45.876;12.300;2022-08-19T07:02:20;23.30;99.90
3727;DHT22;1879;45.876;12.300;2022-08-19T07:04:47;23.30;99.90
3727;DHT22;1879;45.876;12.300;2022-08-19T07:07:15;23.20;99.90
3727;DHT22;1879;45.876;12.300;2022-08-19T07:09:43;23.30;99.90
3727;DHT22;1879;45.876;12.300;2022-08-19T07:12:13;23.50;99.90
3727;DHT22;1879;45.876;12.300;2022-08-19T07:14:42;23.60;99.90
3727;DHT22;1879;45.876;12.300;2022-08-19T07:17:12;23.70;99.90
3727;DHT22;1879;45.876;12.300;2022-08-19T07:19:41;23.80;99.90
3727;DHT22;1879;45.876;12.300;2022-08-19T07:22:09;23.80;99.90
3727;DHT22;1879;45.876;12.300;2022-08-19T07:24:37;23.80;99.90
3727;DHT22;1879;45.876;12.300;2022-08-19T07:27:06;23.90;99.90
3727;DHT22;1879;45.876;12.300;2022-08-19T07:29:35;23.90;99.90
3727;DHT22;1879;45.876;12.300;2022-08-19T07:32:04;23.90;99.90
3727;DHT22;1879;45.876;12.300;2022-08-19T07:34:32;24.10;99.90
3727;DHT22;1879;45.876;12.300;2022-08-19T07:37:04;24.20;99.90
3727;DHT22;1879;45.876;12.300;2022-08-19T07:39:33;24.40;99.90
3727;DHT22;1879;45.876;12.300;2022-08-19T07:42:04;24.50;99.90
3727;DHT22;1879;45.876;12.300;2022-08-19T07:44:32;24.50;99.90
3727;DHT22;1879;45.876;12.300;2022-08-19T07:47:00;24.70;99.90
3727;DHT22;1879;45.876;12.300;2022-08-19T07:49:28;24.80;99.90
3727;DHT22;1879;45.876;12.300;2022-08-19T07:51:58;24.90;99.90
3727;DHT22;1879;45.876;12.300;2022-08-19T07:54:30;25.00;99.90
3727;DHT22;1879;45.876;12.300;2022-08-19T07:56:57;25.10;99.90
3727;DHT22;1879;45.876;12.300;2022-08-19T07:59:24;25.30;99.90
3727;DHT22;1879;45.876;12.300;2022-08-19T08:01:52;25.40;99.90
3727;DHT22;1879;45.876;12.300;2022-08-19T08:04:19;25.60;99.90
3727;DHT22;1879;45.876;12.300;2022-08-19T08:07:05;25.70;99.90
3727;DHT22;1879;45.876;12.300;2022-08-19T08:09:51;25.80;99.90
3727;DHT22;1879;45.876;12.300;2022-08-19T08:12:21;26.00;99.90
3727;DHT22;1879;45.876;12.300;2022-08-19T08:14:51;26.10;99.90
3727;DHT22;1879;45.876;12.300;2022-08-19T08:17:20;26.20;99.90
3727;DHT22;1879;45.876;12.300;2022-08-19T08:19:49;26.10;99.90
3727;DHT22;1879;45.876;12.300;2022-08-19T08:22:21;26.10;99.90
3727;DHT22;1879;45.876;12.300;2022-08-19T08:25:11;26.10;99.90
3727;DHT22;1879;45.876;12.300;2022-08-19T08:27:40;26.10;99.90
3727;DHT22;1879;45.876;12.300;2022-08-19T08:30:08;26.10;99.90
3727;DHT22;1879;45.876;12.300;2022-08-19T08:32:36;26.10;99.90
3727;DHT22;1879;45.876;12.300;2022-08-19T08:35:03;26.20;99.90
3727;DHT22;1879;45.876;12.300;2022-08-19T08:37:31;26.40;99.90
3727;DHT22;1879;45.876;12.300;2022-08-19T08:39:58;26.60;99.90
3727;DHT22;1879;45.876;12.300;2022-08-19T08:42:30;26.90;99.90
3727;DHT22;1879;45.876;12.300;2022-08-19T08:45:00;27.10;99.90
3727;DHT22;1879;45.876;12.300;2022-08-19T08:47:32;27.50;99.90
3727;DHT22;1879;45.876;12.300;2022-08-19T08:50:07;27.70;99.90
3727;DHT22;1879;45.876;12.300;2022-08-19T08:52:41;27.90;99.90
3727;DHT22;1879;45.876;12.300;2022-08-19T08:55:11;28.00;99.90
3727;DHT22;1879;45.876;12.300;2022-08-19T08:57:45;28.20;99.90
3727;DHT22;1879;45.876;12.300;2022-08-19T09:00:20;28.30;99.90
3727;DHT22;1879;45.876;12.300;2022-08-19T09:02:48;28.30;99.90
3727;DHT22;1879;45.876;12.300;2022-08-19T09:05:16;28.40;99.90
3727;DHT22;1879;45.876;12.300;2022-08-19T09:07:50;28.30;99.90
3727;DHT22;1879;45.876;12.300;2022-08-19T09:10:27;28.30;99.90
3727;DHT22;1879;45.876;12.300;2022-08-19T09:13:03;28.20;99.90
3727;DHT22;1879;45.876;12.300;2022-08-19T09:15:34;28.20;99.90
3727;DHT22;1879;45.876;12.300;2022-08-19T09:18:05;28.10;99.90
3727;DHT22;1879;45.876;12.300;2022-08-19T09:20:32;28.20;99.90
3727;DHT22;1879;45.876;12.300;2022-08-19T09:23:00;28.30;99.90
3727;DHT22;1879;45.876;12.300;2022-08-19T09:25:27;28.30;99.90
3727;DHT22;1879;45.876;12.300;2022-08-19T09:27:54;28.30;99.90
3727;DHT22;1879;45.876;12.300;2022-08-19T09:30:27;28.30;99.90
3727;DHT22;1879;45.876;12.300;2022-08-19T09:32:55;28.20;99.90
3727;DHT22;1879;45.876;12.300;2022-08-19T09:35:23;28.20;99.90
3727;DHT22;1879;45.876;12.300;2022-08-19T09:37:51;28.10;98.80
3727;DHT22;1879;45.876;12.300;2022-08-19T09:40:19;28.00;99.90
3727;DHT22;1879;45.876;12.300;2022-08-19T09:42:46;27.90;99.40
3727;DHT22;1879;45.876;12.300;2022-08-19T09:45:14;27.70;99.90
3727;DHT22;1879;45.876;12.300;2022-08-19T09:47:42;27.70;99.90
3727;DHT22;1879;45.876;12.300;2022-08-19T09:50:11;27.60;99.90
3727;DHT22;1879;45.876;12.300;2022-08-19T09:52:38;27.70;99.90
3727;DHT22;1879;45.876;12.300;2022-08-19T09:55:09;27.70;99.90
3727;DHT22;1879;45.876;12.300;2022-08-19T09:57:37;27.90;99.90
3727;DHT22;1879;45.876;12.300;2022-08-19T10:00:07;28.10;99.90
3727;DHT22;1879;45.876;12.300;2022-08-19T10:02:35;28.20;99.50
3727;DHT22;1879;45.876;12.300;2022-08-19T10:05:04;28.40;99.90
3727;DHT22;1879;45.876;12.300;2022-08-19T10:07:49;28.20;99.90
3727;DHT22;1879;45.876;12.300;2022-08-19T10:10:17;27.90;99.90
3727;DHT22;1879;45.876;12.300;2022-08-19T10:12:44;27.70;99.90
3727;DHT22;1879;45.876;12.300;2022-08-19T10:15:13;27.50;99.90
3727;DHT22;1879;45.876;12.300;2022-08-19T10:17:41;27.50;99.90
3727;DHT22;1879;45.876;12.300;2022-08-19T10:20:10;27.40;99.90
3727;DHT22;1879;45.876;12.300;2022-08-19T10:22:37;27.20;99.90
3727;DHT22;1879;45.876;12.300;2022-08-19T10:25:06;27.20;99.90
3727;DHT22;1879;45.876;12.300;2022-08-19T10:27:33;27.40;99.90
3727;DHT22;1879;45.876;12.300;2022-08-19T10:30:00;27.60;99.90
3727;DHT22;1879;45.876;12.300;2022-08-19T10:32:27;27.80;99.90
3727;DHT22;1879;45.876;12.300;2022-08-19T10:34:55;27.80;99.90
3727;DHT22;1879;45.876;12.300;2022-08-19T10:37:24;27.80;99.90
3727;DHT22;1879;45.876;12.300;2022-08-19T10:39:51;27.80;99.90
3727;DHT22;1879;45.876;12.300;2022-08-19T10:42:19;27.90;99.90
3727;DHT22;1879;45.876;12.300;2022-08-19T10:44:46;28.10;99.90
3727;DHT22;1879;45.876;12.300;2022-08-19T10:47:14;28.20;99.90
3727;DHT22;1879;45.876;12.300;2022-08-19T10:49:41;28.30;99.90
3727;DHT22;1879;45.876;12.300;2022-08-19T10:52:27;28.50;99.90
3727;DHT22;1879;45.876;12.300;2022-08-19T10:55:00;28.90;99.90
3727;DHT22;1879;45.876;12.300;2022-08-19T10:57:45;29.10;99.90
3727;DHT22;1879;45.876;12.300;2022-08-19T11:00:13;29.10;99.90
3727;DHT22;1879;45.876;12.300;2022-08-19T11:02:40;29.20;99.90
3727;DHT22;1879;45.876;12.300;2022-08-19T11:05:08;29.20;99.90
3727;DHT22;1879;45.876;12.300;2022-08-19T11:07:38;29.20;99.90
3727;DHT22;1879;45.876;12.300;2022-08-19T11:10:07;29.10;99.90
3727;DHT22;1879;45.876;12.300;2022-08-19T11:12:36;29.10;99.90
3727;DHT22;1879;45.876;12.300;2022-08-19T11:15:06;29.20;99.90
3727;DHT22;1879;45.876;12.300;2022-08-19T11:17:36;29.20;99.90
3727;DHT22;1879;45.876;12.300;2022-08-19T11:20:06;29.20;99.90
3727;DHT22;1879;45.876;12.300;2022-08-19T11:22:34;29.20;99.90
3727;DHT22;1879;45.876;12.300;2022-08-19T11:25:02;28.90;99.90
3727;DHT22;1879;45.876;12.300;2022-08-19T11:27:30;28.80;99.90
3727;DHT22;1879;45.876;12.300;2022-08-19T11:29:57;28.80;99.90
3727;DHT22;1879;45.876;12.300;2022-08-19T11:32:24;28.90;99.90
3727;DHT22;1879;45.876;12.300;2022-08-19T11:34:51;28.80;99.90
3727;DHT22;1879;45.876;12.300;2022-08-19T11:37:18;28.60;99.90
3727;DHT22;1879;45.876;12.300;2022-08-19T11:39:46;28.40;99.90
3727;DHT22;1879;45.876;12.300;2022-08-19T11:42:17;28.20;99.90
3727;DHT22;1879;45.876;12.300;2022-08-19T11:45:02;28.30;99.90
3727;DHT22;1879;45.876;12.300;2022-08-19T11:47:29;28.90;99.90
3727;DHT22;1879;45.876;12.300;2022-08-19T11:49:57;29.30;99.90
3727;DHT22;1879;45.876;12.300;2022-08-19T11:52:24;30.30;99.90
3727;DHT22;1879;45.876;12.300;2022-08-19T11:54:51;30.70;99.90
3727;DHT22;1879;45.876;12.300;2022-08-19T11:57:19;31.30;99.60
3727;DHT22;1879;45.876;12.300;2022-08-19T11:59:50;31.90;97.70
3727;DHT22;1879;45.876;12.300;2022-08-19T12:02:17;31.80;96.30
3727;DHT22;1879;45.876;12.300;2022-08-19T12:04:44;32.00;96.60
3727;DHT22;1879;45.876;12.300;2022-08-19T12:07:11;32.80;95.40
3727;DHT22;1879;45.876;12.300;2022-08-19T12:09:38;32.90;93.50
3727;DHT22;1879;45.876;12.300;2022-08-19T12:12:06;32.30;94.00
3727;DHT22;1879;45.876;12.300;2022-08-19T12:14:35;31.90;94.40
3727;DHT22;1879;45.876;12.300;2022-08-19T12:17:03;31.80;94.70
3727;DHT22;1879;45.876;12.300;2022-08-19T12:19:35;31.60;95.30
3727;DHT22;1879;45.876;12.300;2022-08-19T12:22:02;31.30;95.30
3727;DHT22;1879;45.876;12.300;2022-08-19T12:24:31;31.20;96.00
3727;DHT22;1879;45.876;12.300;2022-08-19T12:26:58;31.50;95.70
3727;DHT22;1879;45.876;12.300;2022-08-19T12:29:27;32.20;94.50
3727;DHT22;1879;45.876;12.300;2022-08-19T12:31:57;32.80;94.10
3727;DHT22;1879;45.876;12.300;2022-08-19T12:34:28;32.20;93.10
3727;DHT22;1879;45.876;12.300;2022-08-19T12:36:56;31.50;94.30
3727;DHT22;1879;45.876;12.300;2022-08-19T12:39:24;31.20;94.50
3727;DHT22;1879;45.876;12.300;2022-08-19T12:41:51;30.80;95.00
3727;DHT22;1879;45.876;12.300;2022-08-19T12:44:18;30.70;95.30
3727;DHT22;1879;45.876;12.300;2022-08-19T12:46:46;30.80;95.30
3727;DHT22;1879;45.876;12.300;2022-08-19T12:49:16;31.20;94.00
3727;DHT22;1879;45.876;12.300;2022-08-19T12:51:43;30.80;94.80
3727;DHT22;1879;45.876;12.300;2022-08-19T12:54:11;30.30;95.40
3727;DHT22;1879;45.876;12.300;2022-08-19T12:56:38;30.00;95.90
3727;DHT22;1879;45.876;12.300;2022-08-19T12:59:06;29.70;96.50
3727;DHT22;1879;45.876;12.300;2022-08-19T13:01:34;29.60;97.20
3727;DHT22;1879;45.876;12.300;2022-08-19T13:04:01;29.60;97.60
3727;DHT22;1879;45.876;12.300;2022-08-19T13:06:30;29.50;98.30
3727;DHT22;1879;45.876;12.300;2022-08-19T13:08:57;29.30;98.90
3727;DHT22;1879;45.876;12.300;2022-08-19T13:11:24;29.20;99.10
3727;DHT22;1879;45.876;12.300;2022-08-19T13:13:52;29.30;98.90
3727;DHT22;1879;45.876;12.300;2022-08-19T13:16:20;29.50;98.80
3727;DHT22;1879;45.876;12.300;2022-08-19T13:18:49;29.60;98.70
3727;DHT22;1879;45.876;12.300;2022-08-19T13:21:18;29.50;98.30
3727;DHT22;1879;45.876;12.300;2022-08-19T13:23:48;29.60;98.90
3727;DHT22;1879;45.876;12.300;2022-08-19T13:26:15;29.50;98.60
3727;DHT22;1879;45.876;12.300;2022-08-19T13:28:44;29.50;98.90
3727;DHT22;1879;45.876;12.300;2022-08-19T13:31:30;29.40;98.80
3727;DHT22;1879;45.876;12.300;2022-08-19T13:34:27;29.30;99.30
3727;DHT22;1879;45.876;12.300;2022-08-19T13:36:55;29.20;99.20
3727;DHT22;1879;45.876;12.300;2022-08-19T13:39:23;29.20;99.10
3727;DHT22;1879;45.876;12.300;2022-08-19T13:41:50;29.10;99.10
3727;DHT22;1879;45.876;12.300;2022-08-19T13:44:18;29.10;98.80
3727;DHT22;1879;45.876;12.300;2022-08-19T13:46:45;29.20;98.70
3727;DHT22;1879;45.876;12.300;2022-08-19T13:49:14;29.60;98.60
3727;DHT22;1879;45.876;12.300;2022-08-19T13:51:42;30.00;97.70
3727;DHT22;1879;45.876;12.300;2022-08-19T13:54:11;30.40;97.20
3727;DHT22;1879;45.876;12.300;2022-08-19T13:56:42;30.40;95.80
3727;DHT22;1879;45.876;12.300;2022-08-19T13:59:10;30.40;95.90
3727;DHT22;1879;45.876;12.300;2022-08-19T14:01:38;30.40;96.30
3727;DHT22;1879;45.876;12.300;2022-08-19T14:04:05;30.40;96.00
3727;DHT22;1879;45.876;12.300;2022-08-19T14:06:33;30.30;96.00
3727;DHT22;1879;45.876;12.300;2022-08-19T14:09:00;30.40;96.40
3727;DHT22;1879;45.876;12.300;2022-08-19T14:11:28;30.40;95.60
3727;DHT22;1879;45.876;12.300;2022-08-19T14:13:56;30.50;95.40
3727;DHT22;1879;45.876;12.300;2022-08-19T14:16:23;30.20;95.70
3727;DHT22;1879;45.876;12.300;2022-08-19T14:18:52;30.20;96.10
3727;DHT22;1879;45.876;12.300;2022-08-19T14:21:21;30.30;95.60
3727;DHT22;1879;45.876;12.300;2022-08-19T14:23:49;30.10;95.50
3727;DHT22;1879;45.876;12.300;2022-08-19T14:26:18;29.70;95.80
3727;DHT22;1879;45.876;12.300;2022-08-19T14:28:46;29.20;96.30
3727;DHT22;1879;45.876;12.300;2022-08-19T14:31:16;28.70;96.50
3727;DHT22;1879;45.876;12.300;2022-08-19T14:33:44;28.60;97.20
3727;DHT22;1879;45.876;12.300;2022-08-19T14:36:12;28.60;97.70
3727;DHT22;1879;45.876;12.300;2022-08-19T14:38:39;28.60;97.70
3727;DHT22;1879;45.876;12.300;2022-08-19T14:41:09;28.40;97.70
3727;DHT22;1879;45.876;12.300;2022-08-19T14:43:37;28.40;98.30
3727;DHT22;1879;45.876;12.300;2022-08-19T14:46:05;28.30;98.70
3727;DHT22;1879;45.876;12.300;2022-08-19T14:48:34;28.30;98.50
3727;DHT22;1879;45.876;12.300;2022-08-19T14:51:02;28.30;98.80
3727;DHT22;1879;45.876;12.300;2022-08-19T14:53:29;28.40;99.00
3727;DHT22;1879;45.876;12.300;2022-08-19T14:55:56;28.40;99.30
3727;DHT22;1879;45.876;12.300;2022-08-19T14:58:26;28.40;99.50
3727;DHT22;1879;45.876;12.300;2022-08-19T15:00:53;28.30;99.90
3727;DHT22;1879;45.876;12.300;2022-08-19T15:03:20;28.30;99.90
3727;DHT22;1879;45.876;12.300;2022-08-19T15:05:48;28.30;99.90
3727;DHT22;1879;45.876;12.300;2022-08-19T15:08:15;28.30;99.90
3727;DHT22;1879;45.876;12.300;2022-08-19T15:10:42;28.30;99.90
3727;DHT22;1879;45.876;12.300;2022-08-19T15:13:09;28.30;99.90
3727;DHT22;1879;45.876;12.300;2022-08-19T15:15:36;28.30;99.90
3727;DHT22;1879;45.876;12.300;2022-08-19T15:18:04;28.30;99.90
3727;DHT22;1879;45.876;12.300;2022-08-19T15:20:31;28.40;99.90
3727;DHT22;1879;45.876;12.300;2022-08-19T15:23:00;28.40;99.90
3727;DHT22;1879;45.876;12.300;2022-08-19T15:25:27;28.50;99.90
3727;DHT22;1879;45.876;12.300;2022-08-19T15:27:54;28.50;99.90
3727;DHT22;1879;45.876;12.300;2022-08-19T15:30:23;28.50;99.90
3727;DHT22;1879;45.876;12.300;2022-08-19T15:32:51;28.50;99.90
3727;DHT22;1879;45.876;12.300;2022-08-19T15:35:21;28.40;99.90
3727;DHT22;1879;45.876;12.300;2022-08-19T15:37:49;28.40;99.90
3727;DHT22;1879;45.876;12.300;2022-08-19T15:40:19;28.40;99.90
3727;DHT22;1879;45.876;12.300;2022-08-19T15:42:46;28.40;99.90
3727;DHT22;1879;45.876;12.300;2022-08-19T15:45:15;28.40;99.90
3727;DHT22;1879;45.876;12.300;2022-08-19T15:47:43;28.40;99.90
3727;DHT22;1879;45.876;12.300;2022-08-19T15:50:14;28.50;99.90
3727;DHT22;1879;45.876;12.300;2022-08-19T15:52:45;28.50;99.90
3727;DHT22;1879;45.876;12.300;2022-08-19T15:55:13;28.40;99.90